Aérodrome :
LOGIN :

S'inscrire | Disclaimer

   EN    FR    IT 

 










Légende :    VFR   VFR Marginal   IFR   IFR Intensif   IFR Très Intensif
Visi : 
Plafond : 
>= 8 km
>= 3000ft
5 à 8 km
1000 à 3000 ft
1500m à 5 km
500 à 1000 ft
800 à 1500m
200 à 500 ft
< 800m
< 200 ft
Symboles :   Orages  Brouillard  Fortes neiges  Fortes précipitations  Vent > 20 kt
SIGMETs :   Divers  Orages  Givrage  Turbulence  Onde Orograph.  Cendres Volcan.







- Altitude de l'aérodrome : 36 ft
- Code IATA : LTQ
- Voir les cartes d'approche


LFAT - Le Touquet

DERNIER METAR :
  • 181100Z AUTO 06006KT 010V120 9999 SCT041 BKN047 18/08 Q1028 NOSIG

METARs EXPIRÉS :
  • 181030Z AUTO 04008KT 360V090 9999 SCT036 BKN046 BKN054 17/08 Q1029 NOSIG
  • 181000Z AUTO 07008KT 030V100 9999 BKN034 BKN043 17/09 Q1029 NOSIG
  • 180930Z AUTO 04008KT 360V060 9999 FEW034 16/10 Q1028 NOSIG
  • 180900Z AUTO 03009KT 9999 SCT036 BKN047 16/09 Q1028 NOSIG
  • 180830Z AUTO 03007KT 9999 FEW038 16/09 Q1028 NOSIG

TAF TAF LFAT
Valide du 18 à 09h jusqu'au 18 à 18h UTC


180800Z 1809/1818 VRB02KT 9999 SCT040
BECMG 1809/1811 03013KT
ATIS : +33 3 21 06 62 84
Pas de NOTAMs connus pour ce terrain.



MET'MAP, la Météo Aéronautique d'un coup d'oeil ! - Copyright ORBIFLY Décembre 2007 - Disclaimer

ORBIFLY MET'MAP TEAM :

Programmation & Développement : Alexandra Zaïnal
Conception & Développement : Baudouin d'Aumeries
Co-Programmation & Développement : Marc-Olivier Méhu
Soutien technique & logistique : Manuel Goepfert

Contact : metmap@orbifly.com




SOURCES & CREDITS :

   NOAA